Time;durP1;ratioP1;P1;durP2;ratioP2;P2;SDS_P1;SDS_P2;PMS_P1;PMS_P2;Temp;Humidity;BMP_temperature;BMP_pressure;BME280_temperature;BME280_humidity;BME280_pressure;Samples;Min_cycle;Max_cycle;Signal;HPM_P1;HPM_P2
2021/12/16 00:03:36;;;;;;;78.00;28.80;;;;;;;8.32;100.00;103351.09;4936459;29;20122;-68
2021/12/16 00:08:23;;;;;;;90.32;32.15;;;;;;;8.39;100.00;103357.16;4940702;28;20031;-68
2021/12/16 00:10:57;;;;;;;93.20;32.65;;;;;;;8.32;100.00;103344.84;4940104;28;20035;-68
2021/12/16 00:34:49;;;;;;;89.72;30.30;;;;;;;8.30;100.00;103366.31;4938915;28;20475;-68
2021/12/16 00:37:15;;;;;;;91.35;32.45;;;;;;;8.29;100.00;103364.56;4943868;28;20035;-68
2021/12/16 00:39:41;;;;;;;99.00;33.88;;;;;;;8.37;100.00;103364.34;4941031;28;20126;-75
2021/12/16 00:42:13;;;;;;;80.65;29.38;;;;;;;8.27;100.00;103361.06;4941061;28;20035;-76
2021/12/16 00:49:37;;;;;;;96.22;34.53;;;;;;;8.23;100.00;103352.22;4945588;28;20054;-75
2021/12/16 00:54:57;;;;;;;95.15;33.42;;;;;;;8.16;100.00;103356.00;4942531;28;20066;-76
2021/12/16 00:57:23;;;;;;;95.07;33.23;;;;;;;8.20;100.00;103355.00;4941329;28;20038;-76
2021/12/16 00:59:50;;;;;;;95.95;33.95;;;;;;;8.18;100.00;103354.16;4941173;28;20045;-76
2021/12/16 01:02:38;;;;;;;105.30;33.88;;;;;;;8.20;100.00;103354.09;4943926;28;20038;-76
2021/12/16 01:05:32;;;;;;;94.72;33.60;;;;;;;8.25;100.00;103358.41;4944921;29;20031;-75
2021/12/16 01:35:46;;;;;;;81.78;30.20;;;;;;;8.23;100.00;103388.81;4945138;28;20042;-68
2021/12/16 01:38:55;;;;;;;82.05;29.85;;;;;;;8.21;100.00;103372.78;4942427;28;20874;-68
2021/12/16 01:57:08;;;;;;;93.03;30.98;;;;;;;8.29;100.00;103401.16;4941057;28;20039;-76
2021/12/16 01:59:36;;;;;;;83.60;28.40;;;;;;;8.28;100.00;103392.25;4938423;28;21020;-68
2021/12/16 02:02:14;;;;;;;90.75;31.58;;;;;;;8.33;100.00;103397.47;4938999;28;20031;-68
2021/12/16 02:05:04;;;;;;;89.07;31.30;;;;;;;8.29;100.00;103406.50;4944239;28;20034;-76
2021/12/16 02:07:47;;;;;;;75.07;27.60;;;;;;;8.30;100.00;103405.59;4941813;28;20035;-76
2021/12/16 02:10:14;;;;;;;78.18;28.67;;;;;;;8.38;100.00;103420.50;4939884;28;20051;-76
2021/12/16 02:32:02;;;;;;;72.82;26.60;;;;;;;8.34;100.00;103417.97;4941055;28;20031;-76
2021/12/16 02:34:42;;;;;;;78.40;28.38;;;;;;;8.35;100.00;103420.59;4942991;28;20525;-76
2021/12/16 02:37:16;;;;;;;79.88;27.90;;;;;;;8.27;100.00;103414.59;4944615;28;20054;-68
2021/12/16 02:39:42;;;;;;;78.15;28.98;;;;;;;8.27;100.00;103414.59;4941417;28;20031;-68
2021/12/16 02:42:16;;;;;;;64.90;27.40;;;;;;;8.34;100.00;103426.00;4941445;28;20040;-76
2021/12/16 02:50:22;;;;;;;78.28;28.70;;;;;;;8.31;100.00;103424.28;4942612;28;20058;-68
2021/12/16 02:52:47;;;;;;;75.60;27.60;;;;;;;8.29;100.00;103403.81;4938690;28;20035;-68
2021/12/16 02:55:15;;;;;;;70.65;27.88;;;;;;;8.31;100.00;103418.06;4924602;29;20027;-76
2021/12/16 02:57:50;;;;;;;77.55;27.58;;;;;;;8.36;100.00;103418.81;4936601;28;20036;-76
2021/12/16 03:00:16;;;;;;;70.97;26.90;;;;;;;8.36;100.00;103424.16;4940232;28;20110;-76
2021/12/16 03:02:46;;;;;;;71.00;28.27;;;;;;;8.36;100.00;103419.66;4940461;28;20051;-76
2021/12/16 03:05:13;;;;;;;75.72;27.00;;;;;;;8.27;100.00;103422.63;4923050;28;20027;-76
2021/12/16 03:07:38;;;;;;;74.60;28.85;;;;;;;8.31;100.00;103421.63;4940401;28;20106;-76
2021/12/16 03:10:43;;;;;;;80.00;28.40;;;;;;;8.18;100.00;103401.44;4940365;28;20055;-68
2021/12/16 03:13:03;;;;;;;67.28;27.67;;;;;;;8.19;100.00;103414.81;4949890;28;20562;-68
2021/12/16 03:20:46;;;;;;;72.05;27.35;;;;;;;8.19;100.00;103411.22;4942704;28;20415;-68
2021/12/16 03:23:28;;;;;;;73.22;27.83;;;;;;;8.13;100.00;103408.69;4941990;29;20146;-68
2021/12/16 03:29:03;;;;;;;71.63;27.35;;;;;;;8.13;100.00;103408.69;4942012;28;20062;-76
2021/12/16 03:31:45;;;;;;;68.18;26.75;;;;;;;8.16;100.00;103424.69;4941387;28;20053;-77
2021/12/16 03:34:39;;;;;;;65.72;25.83;;;;;;;8.10;100.00;103423.91;4944561;28;20574;-76
2021/12/16 03:37:18;;;;;;;71.05;27.35;;;;;;;8.05;100.00;103425.88;4943106;28;20039;-75
2021/12/16 03:40:21;;;;;;;71.03;27.20;;;;;;;8.06;100.00;103416.03;4940957;28;20020;-76
2021/12/16 03:42:54;;;;;;;73.88;26.35;;;;;;;8.05;100.00;103423.19;4938692;28;20035;-76
2021/12/16 03:48:24;;;;;;;68.95;26.30;;;;;;;8.08;100.00;103425.75;4942946;28;20660;-69
2021/12/16 03:50:49;;;;;;;73.95;28.00;;;;;;;7.91;100.00;103417.28;4941890;28;20027;-68
2021/12/16 03:53:16;;;;;;;70.30;27.17;;;;;;;7.94;100.00;103422.56;4936604;29;20672;-68
2021/12/16 03:55:44;;;;;;;64.95;25.73;;;;;;;7.87;100.00;103426.31;4940420;28;20051;-68
2021/12/16 03:58:09;;;;;;;68.55;25.85;;;;;;;7.80;100.00;103421.13;4937199;28;20050;-76
2021/12/16 04:00:41;;;;;;;68.63;25.88;;;;;;;7.73;100.00;103421.28;4939645;28;20044;-76
2021/12/16 04:03:07;;;;;;;72.63;26.55;;;;;;;7.67;100.00;103432.16;4922354;29;20031;-67
2021/12/16 04:05:32;;;;;;;67.47;26.85;;;;;;;7.55;100.00;103433.34;4943355;28;20101;-68
2021/12/16 04:07:58;;;;;;;69.50;25.73;;;;;;;7.40;100.00;103423.88;4939078;28;20081;-76
2021/12/16 04:10:35;;;;;;;66.22;25.10;;;;;;;7.42;100.00;103449.66;4941115;28;20134;-76
2021/12/16 04:13:04;;;;;;;69.05;25.83;;;;;;;7.46;100.00;103443.31;4938897;28;20070;-68
2021/12/16 04:15:30;;;;;;;65.10;26.08;;;;;;;7.21;100.00;103421.59;4920908;28;20051;-76
2021/12/16 04:17:55;;;;;;;65.07;24.40;;;;;;;7.24;100.00;103421.53;4921450;29;20118;-76
2021/12/16 04:20:22;;;;;;;71.03;27.10;;;;;;;7.18;100.00;103416.31;4942005;28;20046;-76
2021/12/16 04:22:47;;;;;;;60.75;23.13;;;;;;;7.16;100.00;103419.03;4942657;28;20023;-76
2021/12/16 04:25:19;;;;;;;76.15;27.45;;;;;;;7.20;100.00;103425.19;4944969;28;20027;-76
2021/12/16 04:27:46;;;;;;;89.40;29.83;;;;;;;7.24;100.00;103432.22;4943221;28;20031;-75
2021/12/16 04:30:13;;;;;;;90.65;30.17;;;;;;;7.17;100.00;103426.16;4939740;28;20118;-68
2021/12/16 04:32:39;;;;;;;78.40;27.75;;;;;;;7.09;100.00;103424.56;4940774;28;20051;-68
2021/12/16 04:35:05;;;;;;;68.68;26.30;;;;;;;7.14;100.00;103431.56;4944291;28;20031;-68
2021/12/16 04:37:30;;;;;;;74.10;26.92;;;;;;;7.07;100.00;103407.69;4923485;29;20035;-68
2021/12/16 04:39:59;;;;;;;75.28;27.70;;;;;;;6.98;100.00;103438.16;4950497;28;20041;-76
2021/12/16 04:42:25;;;;;;;64.47;24.20;;;;;;;7.00;100.00;103436.31;4949763;28;20030;-76
2021/12/16 04:44:51;;;;;;;73.43;24.90;;;;;;;6.97;100.00;103439.06;4929571;29;20066;-76
2021/12/16 04:47:17;;;;;;;71.43;25.70;;;;;;;6.90;100.00;103435.59;4944921;28;20035;-76
2021/12/16 04:49:42;;;;;;;72.20;26.13;;;;;;;6.88;100.00;103445.47;4942504;28;20075;-76
2021/12/16 04:52:16;;;;;;;69.93;26.48;;;;;;;6.85;100.00;103451.72;4930311;28;20031;-76
2021/12/16 04:54:42;;;;;;;67.78;24.58;;;;;;;6.81;100.00;103431.34;4943172;28;20546;-75
2021/12/16 04:57:08;;;;;;;60.70;23.08;;;;;;;6.84;100.00;103447.31;4927632;28;20036;-76
2021/12/16 04:59:34;;;;;;;66.65;23.23;;;;;;;6.79;100.00;103451.84;4942106;29;20834;-76
2021/12/16 05:02:05;;;;;;;65.90;25.35;;;;;;;6.77;100.00;103451.00;4946175;28;20110;-68
2021/12/16 05:04:30;;;;;;;77.13;25.67;;;;;;;6.80;100.00;103453.63;4941033;29;20031;-68
2021/12/16 05:06:56;;;;;;;62.20;23.98;;;;;;;6.72;100.00;103448.44;4945890;28;20027;-76
2021/12/16 05:10:01;;;;;;;63.90;24.13;;;;;;;6.73;100.00;103452.00;4941676;28;20126;-76
2021/12/16 05:12:20;;;;;;;64.97;22.42;;;;;;;6.73;100.00;103458.19;4944691;28;20114;-76
2021/12/16 05:14:47;;;;;;;64.13;25.20;;;;;;;6.71;100.00;103460.03;4944544;28;20093;-76
2021/12/16 05:17:38;;;;;;;72.35;27.00;;;;;;;6.62;100.00;103452.22;4922571;29;20058;-75
2021/12/16 05:20:03;;;;;;;64.95;24.35;;;;;;;6.65;100.00;103452.13;4944945;28;20047;-76
2021/12/16 05:25:22;;;;;;;56.50;23.13;;;;;;;6.58;100.00;103462.03;4946060;28;20386;-68
2021/12/16 05:27:48;;;;;;;66.10;23.88;;;;;;;6.47;100.00;103455.16;4943873;28;20039;-68
2021/12/16 05:30:13;;;;;;;58.40;22.35;;;;;;;6.49;100.00;103467.53;4951768;28;20031;-68
2021/12/16 05:32:45;;;;;;;238.52;31.75;;;;;;;6.42;100.00;103460.59;4943268;28;20031;-68
2021/12/16 05:35:10;;;;;;;56.25;22.25;;;;;;;6.40;100.00;103468.59;4944202;29;20027;-68
2021/12/16 05:37:35;;;;;;;52.72;22.55;;;;;;;6.32;100.00;103466.97;4944060;28;20531;-68
2021/12/16 05:40:01;;;;;;;51.15;21.23;;;;;;;6.34;100.00;103479.41;4942839;29;20086;-68
2021/12/16 05:42:26;;;;;;;54.97;21.15;;;;;;;6.22;100.00;103460.94;4942020;28;20055;-68
2021/12/16 05:44:51;;;;;;;79.22;22.48;;;;;;;6.32;100.00;103477.66;4945329;28;20115;-68
2021/12/16 05:47:17;;;;;;;65.00;21.77;;;;;;;6.25;100.00;103477.75;4945329;28;20142;-68
2021/12/16 05:49:42;;;;;;;233.43;30.08;;;;;;;6.14;100.00;103479.75;4942710;28;20045;-76
2021/12/16 05:52:08;;;;;;;58.20;20.42;;;;;;;6.11;100.00;103486.00;4925044;29;20487;-76
2021/12/16 05:54:34;;;;;;;70.53;22.73;;;;;;;6.13;100.00;103493.97;4925431;29;20060;-68
2021/12/16 05:56:59;;;;;;;312.45;33.47;;;;;;;6.10;100.00;103491.38;4943405;28;20118;-68
2021/12/16 05:59:25;;;;;;;67.40;21.27;;;;;;;6.02;100.00;103483.50;4943893;28;20038;-76
2021/12/16 06:01:50;;;;;;;119.93;24.20;;;;;;;6.06;100.00;103495.88;4940519;29;20031;-76
2021/12/16 06:04:16;;;;;;;114.50;24.38;;;;;;;6.04;100.00;103495.03;4943425;28;20527;-76
2021/12/16 06:06:42;;;;;;;149.57;26.08;;;;;;;6.06;100.00;103494.97;4939709;28;20023;-76
2021/12/16 06:09:08;;;;;;;134.10;27.13;;;;;;;6.11;100.00;103494.00;4943807;28;20361;-76
2021/12/16 06:11:35;;;;;;;111.13;22.83;;;;;;;6.08;100.00;103495.84;4926975;28;20027;-76
2021/12/16 06:27:34;;;;;;;88.28;22.42;;;;;;;6.18;100.00;103507.25;4931087;28;20091;-68
2021/12/16 06:29:59;;;;;;;73.85;22.92;;;;;;;6.07;100.00;103494.06;4942653;28;20118;-76
2021/12/16 06:32:26;;;;;;;59.85;21.45;;;;;;;6.09;100.00;103494.94;4946855;28;20141;-76
2021/12/16 06:34:52;;;;;;;211.23;30.58;;;;;;;6.14;100.00;103511.75;4942532;28;20051;-76
2021/12/16 06:37:17;;;;;;;106.82;25.13;;;;;;;6.18;100.00;103517.91;4942027;29;20671;-76
2021/12/16 06:39:43;;;;;;;121.45;25.52;;;;;;;6.13;100.00;103512.66;4941342;28;20727;-76
2021/12/16 06:42:09;;;;;;;157.07;26.90;;;;;;;6.06;100.00;103508.31;4932823;28;20023;-76
2021/12/16 06:44:43;;;;;;;204.40;30.10;;;;;;;6.16;100.00;103517.94;4943136;28;20026;-76
2021/12/16 06:47:16;;;;;;;160.52;26.63;;;;;;;6.14;100.00;103515.28;4924282;28;20505;-76
2021/12/16 06:49:44;;;;;;;258.63;31.80;;;;;;;6.08;100.00;103503.84;4945853;28;20039;-76
2021/12/16 06:52:12;;;;;;;142.32;27.75;;;;;;;6.08;100.00;103509.19;4943474;28;20062;-76
2021/12/16 06:54:59;;;;;;;111.80;24.48;;;;;;;6.09;100.00;103519.81;4947317;28;20539;-76
2021/12/16 07:00:10;;;;;;;143.90;25.75;;;;;;;6.13;100.00;103534.88;4946036;28;20078;-76
2021/12/16 07:05:14;;;;;;;85.07;23.77;;;;;;;6.01;100.00;103551.06;4926647;28;20031;-68
2021/12/16 07:07:39;;;;;;;98.85;22.13;;;;;;;6.05;100.00;103549.22;4938730;28;20222;-67
2021/12/16 07:10:08;;;;;;;146.75;21.75;;;;;;;6.00;100.00;103543.97;4939780;28;20118;-68
2021/12/16 07:12:38;;;;;;;82.78;22.20;;;;;;;5.94;100.00;103546.69;4941533;28;20491;-68
2021/12/16 07:15:10;;;;;;;103.95;21.75;;;;;;;5.91;100.00;103547.63;4937765;29;20038;-68
2021/12/16 07:17:35;;;;;;;71.35;20.70;;;;;;;6.00;100.00;103567.97;4938336;28;20035;-68
2021/12/16 07:20:01;;;;;;;78.60;21.80;;;;;;;5.94;100.00;103571.59;4942274;28;20082;-68
2021/12/16 07:22:26;;;;;;;79.82;20.90;;;;;;;5.95;100.00;103573.34;4944938;28;20877;-68
2021/12/16 07:24:51;;;;;;;106.93;23.13;;;;;;;5.92;100.00;103581.41;4940932;28;20031;-68
2021/12/16 07:27:17;;;;;;;116.65;22.55;;;;;;;5.97;100.00;103582.19;4941171;28;20038;-68
2021/12/16 07:29:42;;;;;;;80.35;20.98;;;;;;;5.88;100.00;103587.66;4941132;28;20040;-76
2021/12/16 07:32:08;;;;;;;177.93;25.40;;;;;;;5.84;100.00;103596.63;4941983;28;20106;-76
2021/12/16 07:34:34;;;;;;;81.22;21.33;;;;;;;5.88;100.00;103609.00;4941728;28;20082;-76
2021/12/16 07:37:04;;;;;;;70.22;20.75;;;;;;;5.81;100.00;103593.97;4944258;28;20582;-76
2021/12/16 07:39:37;;;;;;;66.80;21.00;;;;;;;5.68;100.00;103607.50;4926439;28;20082;-76
2021/12/16 07:42:03;;;;;;;80.78;19.83;;;;;;;5.67;100.00;103612.81;4922376;28;20034;-68
2021/12/16 07:44:28;;;;;;;70.72;18.95;;;;;;;5.64;100.00;103608.44;4942860;28;20035;-68
2021/12/16 07:46:57;;;;;;;96.43;19.10;;;;;;;5.66;100.00;103606.63;4939368;28;20133;-68
2021/12/16 07:49:29;;;;;;;120.47;21.25;;;;;;;5.64;100.00;103620.84;4946067;28;20078;-68
2021/12/16 07:51:55;;;;;;;66.18;18.25;;;;;;;5.68;100.00;103626.16;4934961;28;20054;-68
2021/12/16 07:54:22;;;;;;;94.32;19.40;;;;;;;5.69;100.00;103619.88;4944443;28;20035;-68
2021/12/16 07:56:49;;;;;;;73.07;19.55;;;;;;;5.62;100.00;103622.66;4939290;28;20163;-76
2021/12/16 07:59:15;;;;;;;65.88;18.25;;;;;;;5.64;100.00;103642.19;4927179;29;20385;-68
2021/12/16 08:01:42;;;;;;;65.57;18.38;;;;;;;5.69;100.00;103651.88;4947753;28;20050;-76
2021/12/16 08:04:18;;;;;;;74.18;19.85;;;;;;;5.69;100.00;103640.34;4942920;28;20093;-76
2021/12/16 08:06:46;;;;;;;80.22;20.63;;;;;;;5.71;100.00;103650.06;4943028;28;21716;-68
2021/12/16 08:09:12;;;;;;;63.72;17.75;;;;;;;5.76;100.00;103651.81;4940721;28;20027;-68
2021/12/16 08:11:40;;;;;;;74.05;17.27;;;;;;;5.72;100.00;103642.97;4942083;28;20051;-68
2021/12/16 08:14:06;;;;;;;81.93;19.92;;;;;;;5.78;100.00;103655.34;4944446;28;20035;-68
2021/12/16 08:16:32;;;;;;;67.65;20.30;;;;;;;5.83;100.00;103661.50;4940267;28;20479;-68
2021/12/16 08:18:58;;;;;;;51.00;17.92;;;;;;;5.91;100.00;103666.75;4946475;28;20035;-68
2021/12/16 08:21:27;;;;;;;91.95;21.33;;;;;;;5.80;100.00;103659.78;4923210;29;20046;-68
2021/12/16 08:23:54;;;;;;;72.53;18.58;;;;;;;5.82;100.00;103665.06;4944211;28;20028;-68
2021/12/16 08:26:20;;;;;;;68.90;19.15;;;;;;;5.85;100.00;103667.72;4942824;28;20034;-68
2021/12/16 08:28:45;;;;;;;85.45;20.33;;;;;;;5.88;100.00;103677.44;4939717;28;20553;-68
2021/12/16 08:31:11;;;;;;;82.95;20.30;;;;;;;5.83;100.00;103665.03;4943752;28;20449;-76
2021/12/16 08:33:38;;;;;;;99.03;22.15;;;;;;;5.92;100.00;103681.84;4927499;28;20027;-76
2021/12/16 08:36:05;;;;;;;109.25;20.88;;;;;;;5.89;100.00;103680.09;4923901;28;20099;-76
2021/12/16 08:38:31;;;;;;;72.38;19.13;;;;;;;5.94;100.00;103686.28;4938903;28;20027;-68
2021/12/16 08:41:05;;;;;;;110.55;21.40;;;;;;;5.92;100.00;103692.50;4941011;28;20086;-68
2021/12/16 08:43:31;;;;;;;107.93;21.98;;;;;;;5.83;100.00;103681.03;4942495;28;20069;-68
2021/12/16 08:45:57;;;;;;;106.00;22.10;;;;;;;5.89;100.00;103693.44;4927719;29;20039;-68
2021/12/16 08:48:34;;;;;;;117.00;22.27;;;;;;;5.70;100.00;103664.31;4940346;28;20129;-71
2021/12/16 08:50:59;;;;;;;114.30;21.67;;;;;;;5.82;100.00;103691.75;4935827;28;20729;-70
2021/12/16 08:53:25;;;;;;;79.40;19.42;;;;;;;5.91;100.00;103698.75;4923852;29;20046;-68
2021/12/16 08:55:53;;;;;;;78.05;19.73;;;;;;;5.97;100.00;103701.34;4944653;28;20475;-68
2021/12/16 08:58:18;;;;;;;146.60;24.02;;;;;;;5.99;100.00;103704.88;4939073;28;20049;-76
2021/12/16 09:00:50;;;;;;;90.78;21.30;;;;;;;6.02;100.00;103706.63;4925317;28;20027;-76
2021/12/16 09:03:15;;;;;;;92.72;20.40;;;;;;;6.02;100.00;103703.97;4944884;28;20023;-76
2021/12/16 09:05:41;;;;;;;105.07;22.85;;;;;;;6.05;100.00;103701.28;4947227;28;20045;-75
2021/12/16 09:08:06;;;;;;;96.50;22.40;;;;;;;6.03;100.00;103698.63;4942777;28;20062;-75
2021/12/16 09:10:34;;;;;;;89.47;21.08;;;;;;;5.99;100.00;103716.41;4944421;28;20062;-75
2021/12/16 09:13:03;;;;;;;69.50;19.45;;;;;;;6.03;100.00;103716.41;4940783;28;20032;-75
2021/12/16 09:15:47;;;;;;;153.57;25.30;;;;;;;6.03;100.00;103711.97;4942283;28;20050;-76
2021/12/16 09:18:15;;;;;;;122.60;22.17;;;;;;;6.07;100.00;103718.13;4943802;28;20055;-76
2021/12/16 09:20:40;;;;;;;84.65;22.05;;;;;;;6.05;100.00;103718.16;4945255;28;20050;-76
2021/12/16 09:23:07;;;;;;;102.60;22.23;;;;;;;6.08;100.00;103722.56;4946565;28;20035;-68
2021/12/16 09:25:33;;;;;;;121.45;20.83;;;;;;;6.15;100.00;103734.94;4942972;28;20023;-68
2021/12/16 09:27:58;;;;;;;104.47;20.75;;;;;;;6.25;100.00;103727.69;4944237;28;20031;-68
2021/12/16 09:30:26;;;;;;;78.78;19.80;;;;;;;6.35;100.00;103725.78;4945610;28;20406;-68
2021/12/16 09:32:53;;;;;;;120.90;21.25;;;;;;;6.34;100.00;103719.56;4929572;29;20380;-68
2021/12/16 09:35:19;;;;;;;61.28;20.70;;;;;;;6.43;100.00;103730.09;4945243;28;20027;-76
2021/12/16 09:37:45;;;;;;;92.13;23.05;;;;;;;6.42;100.00;103719.47;4945088;29;20033;-68
2021/12/16 09:40:14;;;;;;;108.00;22.75;;;;;;;6.34;100.00;103708.00;4945609;28;20035;-68
2021/12/16 09:42:40;;;;;;;130.63;22.95;;;;;;;6.41;100.00;103734.56;4946016;28;20028;-68
2021/12/16 09:45:08;;;;;;;90.78;22.25;;;;;;;6.52;100.00;103730.88;4944208;28;20035;-68
2021/12/16 09:47:37;;;;;;;108.72;22.58;;;;;;;6.51;100.00;103718.44;4945411;28;20806;-76
2021/12/16 09:50:08;;;;;;;117.90;23.58;;;;;;;6.42;100.00;103712.31;4948287;28;20035;-76
2021/12/16 09:52:34;;;;;;;156.02;25.88;;;;;;;6.35;100.00;103731.13;4942622;29;20127;-68
2021/12/16 09:54:59;;;;;;;110.10;22.95;;;;;;;6.36;100.00;103723.06;4945607;28;20038;-76
2021/12/16 09:57:25;;;;;;;185.07;27.77;;;;;;;6.37;100.00;103707.97;4941889;28;20042;-76
2021/12/16 09:59:51;;;;;;;174.65;27.02;;;;;;;6.57;100.00;103727.25;4946089;28;20027;-76
2021/12/16 10:02:19;;;;;;;69.00;20.55;;;;;;;6.59;100.00;103716.56;4946101;28;20043;-76
2021/12/16 10:04:45;;;;;;;122.80;24.60;;;;;;;6.76;100.00;103716.28;4945744;28;20115;-76
2021/12/16 10:07:17;;;;;;;153.25;23.52;;;;;;;6.98;100.00;103731.97;4941710;28;20038;-76
2021/12/16 10:09:45;;;;;;;130.43;24.08;;;;;;;7.04;100.00;103726.50;4931147;29;20035;-76
2021/12/16 10:12:15;;;;;;;120.35;24.60;;;;;;;6.92;100.00;103719.59;4944190;28;20518;-76
2021/12/16 10:15:00;;;;;;;133.65;23.95;;;;;;;7.09;100.00;103730.00;4944548;29;20411;-76
2021/12/16 10:17:33;;;;;;;136.98;24.85;;;;;;;7.21;100.00;103720.88;4943699;28;20031;-68
2021/12/16 10:20:06;;;;;;;120.53;31.23;;;;;;;7.19;100.00;103725.38;4942552;28;20059;-68
2021/12/16 10:22:39;;;;;;;108.68;24.73;;;;;;;7.28;100.00;103727.91;4944096;28;20028;-68
2021/12/16 10:25:33;;;;;;;109.45;23.80;;;;;;;7.32;100.00;103718.03;4943374;28;20065;-68
2021/12/16 10:28:10;;;;;;;83.43;21.92;;;;;;;7.10;100.00;103721.06;4940029;28;20024;-68
2021/12/16 10:30:48;;;;;;;109.72;23.00;;;;;;;7.16;100.00;103729.00;4943614;28;20110;-69
2021/12/16 10:33:35;;;;;;;115.72;22.40;;;;;;;7.16;100.00;103728.09;4940579;29;20066;-76
2021/12/16 10:36:03;;;;;;;81.35;21.63;;;;;;;7.28;100.00;103729.72;4946078;28;20106;-76
2021/12/16 10:38:38;;;;;;;105.30;22.33;;;;;;;7.42;100.00;103724.97;4942154;28;20051;-76
2021/12/16 10:41:04;;;;;;;99.88;22.70;;;;;;;7.63;100.00;103733.50;4943840;28;20022;-76
2021/12/16 10:43:43;;;;;;;66.28;20.58;;;;;;;7.86;100.00;103735.75;4913273;28;20383;-77
2021/12/16 10:46:13;;;;;;;110.10;23.92;;;;;;;7.86;100.00;103749.13;4944619;28;20857;-76
2021/12/16 10:48:41;;;;;;;72.97;24.10;;;;;;;8.02;100.00;103754.16;4945742;28;20038;-68
2021/12/16 10:51:25;;;;;;;91.43;23.80;;;;;;;8.03;100.00;103758.59;4944269;28;20038;-69
2021/12/16 10:54:01;;;;;;;88.40;22.00;;;;;;;8.07;100.00;103760.28;4937841;28;20554;-76
2021/12/16 10:56:55;;;;;;;95.03;23.15;;;;;;;8.20;100.00;103758.25;4937328;28;20035;-76
2021/12/16 10:59:28;;;;;;;76.28;20.10;;;;;;;8.16;100.00;103767.25;4939814;28;20069;-76
2021/12/16 11:02:06;;;;;;;75.82;20.20;;;;;;;8.18;100.00;103762.75;4937835;29;20031;-76
2021/12/16 11:04:44;;;;;;;65.75;20.40;;;;;;;8.21;100.00;103750.16;4943517;28;20410;-76
2021/12/16 11:07:21;;;;;;;60.55;19.60;;;;;;;8.28;100.00;103767.00;4940316;28;20031;-76
2021/12/16 11:10:05;;;;;;;59.05;18.75;;;;;;;8.36;100.00;103764.16;4944629;28;20038;-77
2021/12/16 11:12:40;;;;;;;105.05;22.45;;;;;;;8.25;100.00;103759.03;4940315;28;20031;-76
2021/12/16 11:15:10;;;;;;;75.00;20.33;;;;;;;8.17;100.00;103763.66;4942253;28;20062;-77
2021/12/16 11:17:43;;;;;;;100.40;22.52;;;;;;;8.29;100.00;103766.09;4941929;28;20033;-77
2021/12/16 11:20:14;;;;;;;127.72;24.35;;;;;;;8.15;100.00;103760.13;4940529;28;20530;-76
2021/12/16 11:22:40;;;;;;;112.03;23.50;;;;;;;8.12;100.00;103761.09;4941724;28;20027;-76
2021/12/16 11:25:11;;;;;;;106.03;23.60;;;;;;;8.08;100.00;103767.41;4942425;28;20033;-77
2021/12/16 11:27:37;;;;;;;118.32;25.25;;;;;;;7.99;100.00;103749.75;4945824;28;20114;-77
2021/12/16 11:30:24;;;;;;;138.95;25.17;;;;;;;8.01;100.00;103755.06;4942840;28;20040;-76
2021/12/16 11:32:52;;;;;;;136.32;24.98;;;;;;;7.94;100.00;103738.25;4925009;29;20035;-76
2021/12/16 11:35:35;;;;;;;162.02;27.48;;;;;;;7.83;100.00;103749.19;4927687;28;20097;-77
2021/12/16 11:38:09;;;;;;;197.52;27.38;;;;;;;7.78;100.00;103740.34;4943537;28;20035;-77
2021/12/16 11:41:04;;;;;;;282.75;37.50;;;;;;;7.80;100.00;103749.22;4943192;28;20054;-77
2021/12/16 11:43:43;;;;;;;171.63;28.63;;;;;;;7.88;100.00;103741.03;4946346;28;20035;-77
2021/12/16 11:46:20;;;;;;;178.18;29.90;;;;;;;7.86;100.00;103738.41;4943311;28;20031;-77
2021/12/16 11:48:46;;;;;;;247.52;31.95;;;;;;;7.89;100.00;103727.66;4926811;29;20027;-69
2021/12/16 11:51:28;;;;;;;365.52;41.55;;;;;;;8.10;100.00;103723.63;4941441;28;20035;-69
2021/12/16 11:53:59;;;;;;;254.93;36.17;;;;;;;8.28;100.00;103724.19;4939376;28;20114;-69
2021/12/16 11:56:39;;;;;;;253.88;34.85;;;;;;;8.30;100.00;103722.34;4942901;28;20031;-69
2021/12/16 11:59:05;;;;;;;172.50;31.00;;;;;;;8.37;100.00;103721.28;4938575;29;20035;-69
2021/12/16 12:01:31;;;;;;;174.38;31.00;;;;;;;8.55;100.00;103701.25;4925292;29;20039;-69
2021/12/16 12:04:02;;;;;;;152.00;30.77;;;;;;;8.90;100.00;103716.53;4941725;28;20037;-69
2021/12/16 12:06:30;;;;;;;160.43;30.38;;;;;;;9.32;100.00;103705.63;4944979;28;20138;-69
2021/12/16 12:08:57;;;;;;;139.45;29.27;;;;;;;9.94;100.00;103719.13;4944228;28;20023;-69
2021/12/16 12:11:35;;;;;;;83.03;25.55;;;;;;;10.45;100.00;103728.38;4944190;28;20685;-77
2021/12/16 12:14:04;;;;;;;74.10;24.90;;;;;;;10.83;100.00;103709.28;4928482;29;20027;-76
2021/12/16 12:16:54;;;;;;;74.18;25.77;;;;;;;11.48;98.36;103723.22;4943185;28;20046;-77
2021/12/16 12:19:23;;;;;;;49.55;23.30;;;;;;;11.70;96.29;103712.53;4946454;28;20570;-77
2021/12/16 12:21:54;;;;;;;50.10;23.92;;;;;;;11.95;94.46;103717.88;4925099;28;20043;-69
2021/12/16 12:24:46;;;;;;;52.13;24.13;;;;;;;12.21;95.17;103720.53;4944515;28;20081;-69
2021/12/16 12:27:21;;;;;;;47.70;24.10;;;;;;;12.20;93.67;103722.38;4943908;28;20027;-77
2021/12/16 12:29:58;;;;;;;45.10;22.98;;;;;;;12.19;93.73;103711.63;4926886;29;20031;-77
2021/12/16 12:32:33;;;;;;;48.30;23.23;;;;;;;12.43;91.37;103720.56;4942885;28;20027;-77
2021/12/16 12:35:06;;;;;;;46.55;22.77;;;;;;;13.34;90.51;103727.56;4944330;28;20038;-69
2021/12/16 12:37:34;;;;;;;44.88;23.02;;;;;;;14.78;85.49;103721.91;4943814;28;20452;-69
2021/12/16 12:40:14;;;;;;;42.88;23.85;;;;;;;15.41;73.88;103720.53;4943407;28;21417;-77
2021/12/16 12:42:40;;;;;;;41.25;22.50;;;;;;;16.30;77.07;103720.22;4945001;28;20035;-77
2021/12/16 12:45:09;;;;;;;37.42;21.10;;;;;;;16.41;76.68;103713.31;4950596;28;20055;-77
2021/12/16 12:47:35;;;;;;;32.42;19.80;;;;;;;15.87;77.18;103726.19;4946268;28;20652;-77
2021/12/16 12:50:23;;;;;;;35.88;21.45;;;;;;;15.50;75.00;103705.63;4946912;28;20636;-77
2021/12/16 12:52:51;;;;;;;33.83;20.85;;;;;;;15.14;79.29;103719.16;4949447;28;20069;-77
2021/12/16 12:55:28;;;;;;;37.40;21.17;;;;;;;15.50;77.21;103713.75;4946538;28;20027;-77
2021/12/16 12:58:04;;;;;;;37.53;20.58;;;;;;;15.59;75.09;103714.13;4938375;29;20023;-77
2021/12/16 13:00:34;;;;;;;38.35;21.45;;;;;;;16.20;76.70;103718.97;4946836;28;20027;-69
2021/12/16 13:03:07;;;;;;;33.83;18.13;;;;;;;16.59;70.57;103716.78;4947254;29;20042;-69
2021/12/16 13:05:33;;;;;;;30.00;17.75;;;;;;;16.64;74.44;103718.28;4941295;28;20027;-69
2021/12/16 13:08:05;;;;;;;28.60;17.33;;;;;;;15.75;73.39;103713.31;4943410;29;20041;-69
2021/12/16 13:10:31;;;;;;;34.45;18.80;;;;;;;14.83;77.31;103717.16;4947453;28;20039;-76
2021/12/16 13:13:27;;;;;;;28.40;17.95;;;;;;;13.81;79.96;103703.94;4946513;28;20036;-69
2021/12/16 13:27:47;;;;;;;66.55;19.20;;;;;;;10.93;94.50;103729.56;4942052;28;20447;-77
2021/12/16 13:30:20;;;;;;;55.85;19.17;;;;;;;10.61;97.01;103734.16;4920310;29;20031;-76
2021/12/16 13:33:14;;;;;;;43.37;19.37;;;;;;;10.43;98.50;103739.19;4944692;28;20031;-76
2021/12/16 13:35:47;;;;;;;62.58;19.92;;;;;;;10.11;100.00;103743.69;4941903;28;20042;-76
2021/12/16 13:38:13;;;;;;;37.15;18.75;;;;;;;10.06;100.00;103734.88;4940489;28;20031;-76
2021/12/16 13:40:41;;;;;;;57.28;20.52;;;;;;;9.97;100.00;103735.13;4940757;28;20295;-76
2021/12/16 13:43:15;;;;;;;45.25;17.73;;;;;;;9.74;100.00;103734.00;4945013;28;20031;-76
2021/12/16 13:45:58;;;;;;;60.83;19.83;;;;;;;9.44;100.00;103736.59;4941832;28;20078;-76
2021/12/16 14:03:28;;;;;;;66.32;19.38;;;;;;;8.99;100.00;103743.13;4939983;28;20046;-76
2021/12/16 14:08:36;;;;;;;48.20;18.73;;;;;;;8.54;100.00;103742.34;4947905;28;20035;-76